Time;durP1;ratioP1;P1;durP2;ratioP2;P2;SDS_P1;SDS_P2;PMS_P1;PMS_P2;Temp;Humidity;BMP_temperature;BMP_pressure;BME280_temperature;BME280_humidity;BME280_pressure;Samples;Min_cycle;Max_cycle;Signal;HPM_P1;HPM_P2
2023/09/08 06:09:11;;;;;;;3.97;3.67;;;;;;;;;;10283858;28;20223;-76
2023/09/08 06:14:13;;;;;;;5.95;3.72;;;;;;;;;;10311879;28;20217;-75
2023/09/08 06:19:17;;;;;;;3.53;3.33;;;;;;;;;;10306227;28;20315;-74
2023/09/08 06:24:18;;;;;;;5.10;4.55;;;;;;;;;;10304539;28;21002;-74
2023/09/08 06:29:19;;;;;;;5.03;4.10;;;;;;;;;;10301014;28;20209;-74
2023/09/08 06:34:22;;;;;;;4.60;4.18;;;;;;;;;;10301129;28;20264;-75
2023/09/08 06:39:26;;;;;;;4.97;4.38;;;;;;;;;;10288358;28;20716;-75
2023/09/08 06:44:27;;;;;;;10.90;4.68;;;;;;;;;;10283554;28;20244;-74
2023/09/08 06:49:29;;;;;;;4.20;3.80;;;;;;;;;;10296265;28;20217;-75
2023/09/08 06:54:30;;;;;;;5.32;4.80;;;;;;;;;;10279737;28;20235;-77
2023/09/08 06:59:31;;;;;;;5.20;4.57;;;;;;;;;;10272466;28;20267;-76
2023/09/08 07:04:33;;;;;;;4.88;3.67;;;;;;;;;;10297942;28;20642;-76
2023/09/08 07:09:38;;;;;;;3.88;3.67;;;;;;;;;;10286300;28;20352;-77
2023/09/08 07:14:40;;;;;;;5.20;4.20;;;;;;;;;;10319525;28;20216;-77
2023/09/08 07:19:41;;;;;;;4.68;4.28;;;;;;;;;;10316998;28;20236;-77
2023/09/08 07:24:44;;;;;;;4.60;3.75;;;;;;;;;;10305793;28;20313;-78
2023/09/08 07:29:47;;;;;;;6.78;4.63;;;;;;;;;;10299458;28;20236;-77
2023/09/08 07:34:54;;;;;;;4.22;3.83;;;;;;;;;;10306572;28;20213;-77
2023/09/08 07:39:56;;;;;;;3.75;3.53;;;;;;;;;;10301110;28;20213;-78
2023/09/08 07:44:57;;;;;;;4.00;3.05;;;;;;;;;;10286660;28;20213;-76
2023/09/08 07:50:37;;;;;;;4.85;3.60;;;;;;;;;;10282374;28;20262;-76
2023/09/08 07:55:38;;;;;;;8.90;4.20;;;;;;;;;;10226392;28;20222;-76
2023/09/08 08:00:39;;;;;;;4.00;3.67;;;;;;;;;;10290996;28;20303;-77
2023/09/08 08:05:40;;;;;;;3.67;3.47;;;;;;;;;;10297387;28;20232;-76
2023/09/08 08:10:42;;;;;;;3.28;3.15;;;;;;;;;;10307714;28;20400;-78
2023/09/08 08:15:45;;;;;;;6.07;3.25;;;;;;;;;;10290505;28;20703;-77
2023/09/08 08:20:46;;;;;;;3.22;3.03;;;;;;;;;;10295966;28;20213;-76
2023/09/08 08:25:49;;;;;;;3.75;3.58;;;;;;;;;;10304896;28;20231;-77
2023/09/08 08:30:50;;;;;;;3.55;3.20;;;;;;;;;;10290245;28;20236;-78
2023/09/08 08:35:51;;;;;;;4.20;3.20;;;;;;;;;;10309084;28;20229;-76
2023/09/08 08:40:52;;;;;;;2.95;2.75;;;;;;;;;;10307803;28;20216;-76
2023/09/08 08:45:54;;;;;;;3.50;3.30;;;;;;;;;;10286902;28;20340;-76
2023/09/08 08:50:56;;;;;;;5.22;3.10;;;;;;;;;;10284535;28;20212;-75
2023/09/08 08:55:59;;;;;;;3.30;2.95;;;;;;;;;;10285534;28;20720;-77
2023/09/08 09:01:00;;;;;;;3.10;2.90;;;;;;;;;;10286393;28;20208;-76
2023/09/08 09:06:03;;;;;;;4.78;4.05;;;;;;;;;;10310048;28;20228;-77
2023/09/08 09:11:06;;;;;;;4.18;3.25;;;;;;;;;;10302330;28;20236;-78
2023/09/08 09:16:10;;;;;;;3.55;3.30;;;;;;;;;;10297568;28;20311;-78
2023/09/08 09:21:11;;;;;;;7.40;3.63;;;;;;;;;;10290922;28;20240;-78
2023/09/08 09:26:22;;;;;;;3.08;2.95;;;;;;;;;;10300429;28;20228;-78
2023/09/08 09:31:25;;;;;;;3.20;3.10;;;;;;;;;;10301698;28;20232;-78
2023/09/08 09:36:26;;;;;;;3.75;3.55;;;;;;;;;;10318779;28;20231;-78
2023/09/08 09:41:29;;;;;;;3.15;2.95;;;;;;;;;;10303545;28;20489;-78
2023/09/08 09:46:30;;;;;;;4.43;3.22;;;;;;;;;;10304939;28;20732;-78
2023/09/08 09:51:31;;;;;;;3.22;3.03;;;;;;;;;;10312671;28;20217;-77
2023/09/08 09:56:33;;;;;;;2.83;2.63;;;;;;;;;;10312729;28;20314;-78
2023/09/08 10:01:35;;;;;;;2.78;2.67;;;;;;;;;;10284611;28;20707;-78
2023/09/08 10:06:37;;;;;;;2.70;2.60;;;;;;;;;;10292834;28;20232;-78
2023/09/08 10:11:40;;;;;;;2.20;2.10;;;;;;;;;;10292643;28;20217;-78
2023/09/08 10:16:43;;;;;;;3.80;2.17;;;;;;;;;;10320074;28;20226;-76
2023/09/08 10:21:48;;;;;;;2.60;2.50;;;;;;;;;;10295590;28;20217;-77
2023/09/08 10:26:57;;;;;;;2.67;2.53;;;;;;;;;;10323107;28;20822;-78
2023/09/08 10:31:58;;;;;;;1.80;1.80;;;;;;;;;;10293696;28;20231;-77
2023/09/08 10:37:00;;;;;;;2.60;2.47;;;;;;;;;;10313567;28;20244;-78
2023/09/08 10:42:25;;;;;;;2.05;2.05;;;;;;;;;;10321297;28;20212;-80
2023/09/08 10:47:30;;;;;;;2.20;2.20;;;;;;;;;;10301045;28;20311;-79
2023/09/08 10:52:33;;;;;;;2.00;1.90;;;;;;;;;;10293242;28;20232;-79
2023/09/08 10:57:34;;;;;;;2.55;2.35;;;;;;;;;;10293313;28;20225;-80
2023/09/08 11:02:37;;;;;;;2.47;2.25;;;;;;;;;;10308114;28;20414;-81
2023/09/08 11:07:38;;;;;;;2.08;1.75;;;;;;;;;;10289646;28;20217;-80
2023/09/08 11:12:40;;;;;;;2.45;2.35;;;;;;;;;;10308180;28;20212;-80
2023/09/08 11:17:41;;;;;;;2.28;2.17;;;;;;;;;;10302413;28;20244;-80
2023/09/08 11:22:45;;;;;;;1.65;1.65;;;;;;;;;;10274537;28;20224;-80
2023/09/08 11:27:46;;;;;;;2.10;2.00;;;;;;;;;;10286845;28;20231;-79
2023/09/08 11:32:48;;;;;;;1.98;1.98;;;;;;;;;;10302021;28;21053;-78
2023/09/08 11:37:51;;;;;;;1.90;1.42;;;;;;;;;;10298165;28;20307;-82
2023/09/08 11:42:54;;;;;;;1.73;1.73;;;;;;;;;;10318059;28;20211;-79
2023/09/08 11:47:55;;;;;;;1.52;1.42;;;;;;;;;;10302329;28;20659;-79
2023/09/08 11:52:58;;;;;;;1.92;1.92;;;;;;;;;;10314416;28;20244;-78
2023/09/08 11:58:02;;;;;;;1.73;1.73;;;;;;;;;;10318683;28;20228;-79
2023/09/08 12:03:10;;;;;;;2.00;1.90;;;;;;;;;;10309691;28;20300;-79
2023/09/08 12:08:11;;;;;;;1.60;1.60;;;;;;;;;;10273710;28;20297;-81
2023/09/08 12:13:14;;;;;;;1.20;1.20;;;;;;;;;;10253566;28;20217;-80
2023/09/08 12:18:15;;;;;;;2.03;2.03;;;;;;;;;;10268037;28;20228;-80
2023/09/08 12:23:20;;;;;;;1.90;1.90;;;;;;;;;;10252451;28;20237;-80
2023/09/08 12:28:22;;;;;;;2.35;1.70;;;;;;;;;;10256873;28;20233;-79
2023/09/08 12:33:23;;;;;;;1.80;1.80;;;;;;;;;;10256081;28;20226;-81
2023/09/08 12:38:31;;;;;;;1.70;1.70;;;;;;;;;;10282541;28;20244;-81
2023/09/08 12:43:32;;;;;;;1.92;1.92;;;;;;;;;;10259171;28;20209;-82
2023/09/08 12:48:33;;;;;;;1.52;1.52;;;;;;;;;;10247583;28;20252;-81
2023/09/08 12:53:37;;;;;;;2.10;2.00;;;;;;;;;;10259877;28;20213;-81
2023/09/08 12:58:38;;;;;;;1.60;1.60;;;;;;;;;;10262238;28;20220;-81
2023/09/08 13:03:39;;;;;;;2.33;2.22;;;;;;;;;;10248577;28;20210;-81
2023/09/08 13:08:40;;;;;;;1.80;1.80;;;;;;;;;;10320695;28;20216;-81
2023/09/08 13:13:42;;;;;;;1.95;1.85;;;;;;;;;;10298888;28;20681;-80
2023/09/08 13:18:44;;;;;;;1.90;1.80;;;;;;;;;;10295398;28;20247;-81
2023/09/08 13:23:46;;;;;;;1.70;1.70;;;;;;;;;;10316245;28;20604;-81
2023/09/08 13:28:47;;;;;;;2.80;2.17;;;;;;;;;;10321596;28;20224;-81
2023/09/08 13:33:48;;;;;;;1.75;1.70;;;;;;;;;;10332140;28;20212;-82
2023/09/08 13:38:49;;;;;;;1.73;1.63;;;;;;;;;;10315362;28;20224;-82
2023/09/08 13:43:50;;;;;;;1.58;1.58;;;;;;;;;;10318202;28;20299;-82
2023/09/08 13:48:51;;;;;;;2.22;2.13;;;;;;;;;;10338194;28;20211;-81
2023/09/08 13:53:52;;;;;;;1.85;1.85;;;;;;;;;;10347927;28;20821;-83
2023/09/08 13:58:53;;;;;;;1.83;1.83;;;;;;;;;;10342116;28;20223;-82
2023/09/08 14:03:55;;;;;;;1.65;1.65;;;;;;;;;;10332402;28;20220;-82
2023/09/08 14:08:56;;;;;;;1.75;1.65;;;;;;;;;;10305069;28;20243;-83
2023/09/08 14:13:57;;;;;;;1.88;1.83;;;;;;;;;;10311280;28;20223;-83
2023/09/08 14:18:58;;;;;;;1.60;1.50;;;;;;;;;;10340765;28;20296;-83
2023/09/08 14:23:59;;;;;;;1.55;1.55;;;;;;;;;;10306238;28;20212;-83
2023/09/08 14:29:01;;;;;;;1.63;1.63;;;;;;;;;;10304493;28;20225;-83
2023/09/08 14:34:03;;;;;;;1.65;1.50;;;;;;;;;;10311045;28;20220;-83
2023/09/08 14:39:04;;;;;;;2.03;1.83;;;;;;;;;;10294437;28;20451;-80
2023/09/08 14:44:06;;;;;;;1.77;1.60;;;;;;;;;;10318803;28;20316;-79
2023/09/08 14:49:07;;;;;;;1.65;1.65;;;;;;;;;;10298560;28;20228;-80
2023/09/08 14:54:08;;;;;;;1.08;1.08;;;;;;;;;;10282867;28;20246;-80
2023/09/08 14:59:09;;;;;;;1.50;1.40;;;;;;;;;;10261238;28;20828;-81
2023/09/08 15:04:11;;;;;;;2.15;1.35;;;;;;;;;;10287928;28;20300;-80
2023/09/08 15:09:12;;;;;;;1.58;1.55;;;;;;;;;;10237342;28;20228;-79
2023/09/08 15:14:13;;;;;;;1.55;1.55;;;;;;;;;;10256846;28;20229;-80
2023/09/08 15:19:14;;;;;;;1.50;1.40;;;;;;;;;;10230644;28;20230;-81
2023/09/08 15:24:15;;;;;;;1.33;1.33;;;;;;;;;;10238542;28;20509;-81
2023/09/08 15:29:19;;;;;;;1.88;1.80;;;;;;;;;;10249036;28;20233;-81
2023/09/08 15:34:21;;;;;;;1.45;1.40;;;;;;;;;;10241896;28;20218;-82
2023/09/08 15:39:22;;;;;;;1.65;1.55;;;;;;;;;;10288375;28;20220;-82
2023/09/08 15:44:23;;;;;;;1.75;1.65;;;;;;;;;;10314700;28;20213;-83
2023/09/08 15:49:24;;;;;;;1.50;1.50;;;;;;;;;;10276478;28;20730;-81
2023/09/08 15:54:25;;;;;;;1.50;1.42;;;;;;;;;;10281642;28;20226;-79
2023/09/08 15:59:27;;;;;;;1.95;1.85;;;;;;;;;;10247436;28;20231;-82
2023/09/08 16:04:28;;;;;;;1.70;1.70;;;;;;;;;;10290542;28;20659;-83
2023/09/08 16:09:29;;;;;;;1.95;1.85;;;;;;;;;;10298162;28;20701;-80
2023/09/08 16:14:30;;;;;;;1.55;1.55;;;;;;;;;;10310683;28;20214;-80
2023/09/08 16:19:31;;;;;;;1.50;1.50;;;;;;;;;;10309278;28;20335;-79
2023/09/08 16:24:32;;;;;;;1.40;1.40;;;;;;;;;;10294683;28;20298;-79
2023/09/08 16:29:33;;;;;;;1.55;1.48;;;;;;;;;;10296981;28;20228;-77
2023/09/08 16:34:34;;;;;;;1.67;1.67;;;;;;;;;;10322100;28;20288;-79
2023/09/08 16:39:35;;;;;;;1.65;1.55;;;;;;;;;;10321085;28;20232;-79
2023/09/08 16:44:37;;;;;;;1.70;1.60;;;;;;;;;;10314522;28;20729;-79
2023/09/08 16:49:38;;;;;;;2.33;1.90;;;;;;;;;;10294803;28;20223;-79
2023/09/08 16:54:39;;;;;;;2.30;1.75;;;;;;;;;;10310033;28;20224;-81
2023/09/08 16:59:40;;;;;;;1.92;1.83;;;;;;;;;;10290712;28;20217;-80
2023/09/08 17:04:43;;;;;;;2.22;2.03;;;;;;;;;;10283961;28;20278;-78
2023/09/08 17:09:45;;;;;;;1.73;1.73;;;;;;;;;;10337171;28;20220;-80
2023/09/08 17:14:46;;;;;;;2.45;2.05;;;;;;;;;;10323375;28;20228;-80
2023/09/08 17:19:47;;;;;;;1.95;1.95;;;;;;;;;;10323710;28;20231;-80
2023/09/08 17:24:49;;;;;;;2.45;2.35;;;;;;;;;;10303964;28;20310;-79
2023/09/08 17:29:50;;;;;;;2.63;2.53;;;;;;;;;;10306745;28;21746;-79
2023/09/08 17:34:52;;;;;;;2.25;2.15;;;;;;;;;;10323767;28;20275;-79
2023/09/08 17:39:54;;;;;;;2.55;2.25;;;;;;;;;;10305816;28;20244;-78
2023/09/08 17:44:55;;;;;;;2.20;2.10;;;;;;;;;;10310712;28;20316;-79
2023/09/08 17:49:56;;;;;;;2.42;2.22;;;;;;;;;;10294456;28;20217;-78
2023/09/08 17:55:01;;;;;;;2.47;2.30;;;;;;;;;;10297749;28;20220;-78
2023/09/08 18:00:03;;;;;;;1.92;1.92;;;;;;;;;;10317048;28;20220;-80
2023/09/08 18:05:05;;;;;;;2.15;2.05;;;;;;;;;;10353053;28;20329;-78
2023/09/08 18:10:07;;;;;;;2.30;2.20;;;;;;;;;;10302509;28;20184;-77
2023/09/08 18:15:08;;;;;;;2.28;2.17;;;;;;;;;;10327130;28;20201;-78
2023/09/08 18:20:10;;;;;;;1.73;1.73;;;;;;;;;;10322918;28;20283;-78
2023/09/08 18:25:11;;;;;;;1.92;1.85;;;;;;;;;;10298510;28;20220;-78
2023/09/08 18:30:12;;;;;;;2.22;2.13;;;;;;;;;;10322757;28;20960;-78
2023/09/08 18:35:13;;;;;;;2.05;2.00;;;;;;;;;;10302647;28;20223;-78
2023/09/08 18:40:14;;;;;;;2.38;2.28;;;;;;;;;;10320503;28;20189;-78
2023/09/08 18:45:17;;;;;;;2.15;1.95;;;;;;;;;;10337162;28;20689;-78
2023/09/08 18:50:18;;;;;;;2.92;2.38;;;;;;;;;;10318963;28;20265;-79
2023/09/08 18:55:19;;;;;;;3.75;2.17;;;;;;;;;;10309464;28;20624;-79
2023/09/08 19:00:21;;;;;;;2.10;2.00;;;;;;;;;;10329764;28;20227;-79
2023/09/08 19:05:22;;;;;;;2.38;2.20;;;;;;;;;;10316530;28;20237;-78
2023/09/08 19:10:23;;;;;;;2.47;2.28;;;;;;;;;;10317637;28;20299;-80
2023/09/08 19:15:25;;;;;;;4.00;2.47;;;;;;;;;;10296986;28;20788;-79
2023/09/08 19:20:26;;;;;;;2.85;2.60;;;;;;;;;;10310741;28;20247;-78
2023/09/08 19:25:27;;;;;;;2.58;2.47;;;;;;;;;;10295770;28;20225;-79
2023/09/08 19:30:28;;;;;;;2.58;2.47;;;;;;;;;;10294651;28;20216;-77
2023/09/08 19:35:29;;;;;;;2.47;2.28;;;;;;;;;;10306399;28;20221;-78
2023/09/08 19:40:30;;;;;;;2.67;2.47;;;;;;;;;;10300552;28;20212;-78
2023/09/08 19:45:31;;;;;;;3.30;2.95;;;;;;;;;;10287763;28;20347;-79
2023/09/08 19:50:33;;;;;;;2.70;2.50;;;;;;;;;;10308198;28;20860;-78
2023/09/08 19:55:34;;;;;;;3.10;2.92;;;;;;;;;;10311291;28;20351;-78
2023/09/08 20:00:35;;;;;;;2.75;2.65;;;;;;;;;;10326027;28;20939;-78
2023/09/08 20:05:36;;;;;;;2.53;2.20;;;;;;;;;;10296480;28;20267;-78
2023/09/08 20:10:37;;;;;;;2.83;2.72;;;;;;;;;;10333371;28;20300;-77
2023/09/08 20:15:38;;;;;;;2.53;2.42;;;;;;;;;;10308576;28;20259;-78
2023/09/08 20:20:40;;;;;;;2.80;2.60;;;;;;;;;;10327996;28;20305;-78
2023/09/08 20:25:41;;;;;;;2.78;2.65;;;;;;;;;;10313186;28;20217;-77
2023/09/08 20:30:42;;;;;;;2.88;2.75;;;;;;;;;;10325482;28;20239;-77
2023/09/08 20:35:43;;;;;;;3.38;2.30;;;;;;;;;;10308392;28;20230;-78
2023/09/08 20:40:48;;;;;;;3.22;2.95;;;;;;;;;;10315130;28;20296;-78
2023/09/08 20:45:53;;;;;;;2.78;2.65;;;;;;;;;;10328992;28;20220;-78
2023/09/08 20:51:10;;;;;;;3.45;3.15;;;;;;;;;;10330588;28;20212;-80
2023/09/08 20:56:12;;;;;;;3.40;3.20;;;;;;;;;;10298058;28;20212;-79
2023/09/08 21:01:13;;;;;;;3.13;2.92;;;;;;;;;;10290317;28;20308;-79
2023/09/08 21:06:16;;;;;;;4.95;3.45;;;;;;;;;;10312873;28;20229;-78
2023/09/08 21:11:17;;;;;;;3.90;2.78;;;;;;;;;;10311499;28;20227;-79
2023/09/08 21:16:18;;;;;;;2.88;2.70;;;;;;;;;;10327013;28;20311;-78
2023/09/08 21:21:19;;;;;;;2.10;2.00;;;;;;;;;;10294638;28;20263;-78
2023/09/08 21:26:20;;;;;;;4.40;2.88;;;;;;;;;;10312200;28;20746;-78
2023/09/08 21:31:21;;;;;;;3.85;2.45;;;;;;;;;;10309700;28;20246;-80
2023/09/08 21:36:22;;;;;;;3.08;2.88;;;;;;;;;;10302565;28;20310;-78
2023/09/08 21:41:24;;;;;;;3.10;2.90;;;;;;;;;;10296047;28;20330;-77
2023/09/08 21:46:25;;;;;;;2.80;2.30;;;;;;;;;;10291826;28;20220;-77
2023/09/08 21:51:26;;;;;;;1.75;1.65;;;;;;;;;;10291638;28;20209;-78
2023/09/08 21:56:27;;;;;;;2.78;2.65;;;;;;;;;;10309956;28;21062;-78
2023/09/08 22:01:28;;;;;;;2.38;2.10;;;;;;;;;;10292691;28;20698;-78
2023/09/08 22:06:29;;;;;;;2.45;2.35;;;;;;;;;;10304407;28;21871;-78
2023/09/08 22:11:30;;;;;;;3.17;2.10;;;;;;;;;;10298686;28;20893;-78
2023/09/08 22:16:32;;;;;;;2.40;2.30;;;;;;;;;;10309488;28;20736;-78
2023/09/08 22:21:33;;;;;;;3.42;3.13;;;;;;;;;;10306336;28;20769;-78
2023/09/08 22:26:34;;;;;;;2.42;2.30;;;;;;;;;;10334745;28;20223;-78
2023/09/08 22:31:35;;;;;;;2.05;1.98;;;;;;;;;;10333975;28;20264;-78
2023/09/08 22:36:36;;;;;;;16.25;2.78;;;;;;;;;;10329633;28;20221;-77
2023/09/08 22:41:37;;;;;;;6.82;3.80;;;;;;;;;;10338993;28;20649;-77
2023/09/08 22:46:38;;;;;;;10.63;4.93;;;;;;;;;;10309697;28;20219;-78
2023/09/08 22:51:41;;;;;;;6.00;5.43;;;;;;;;;;10314088;28;20228;-78
2023/09/08 22:56:42;;;;;;;5.82;5.43;;;;;;;;;;10336129;28;20224;-78
2023/09/08 23:01:43;;;;;;;5.78;5.25;;;;;;;;;;10313669;28;20726;-78
2023/09/08 23:06:44;;;;;;;5.93;5.20;;;;;;;;;;10326686;28;20231;-78
2023/09/08 23:11:45;;;;;;;5.60;4.88;;;;;;;;;;10312482;28;20208;-78
2023/09/08 23:16:47;;;;;;;6.43;5.82;;;;;;;;;;10313148;28;20224;-77
2023/09/08 23:21:48;;;;;;;5.65;5.30;;;;;;;;;;10322975;28;20220;-80
2023/09/08 23:26:49;;;;;;;3.50;3.22;;;;;;;;;;10333546;28;20246;-78
2023/09/08 23:31:50;;;;;;;3.03;2.83;;;;;;;;;;10311839;28;20274;-78
2023/09/08 23:36:52;;;;;;;1.85;1.75;;;;;;;;;;10319334;28;20228;-77
2023/09/08 23:41:53;;;;;;;1.38;1.27;;;;;;;;;;10329977;28;20239;-77
2023/09/08 23:46:54;;;;;;;1.02;0.60;;;;;;;;;;10331225;28;20311;-77
2023/09/08 23:51:55;;;;;;;0.95;0.93;;;;;;;;;;10306958;28;20209;-78
2023/09/08 23:56:57;;;;;;;0.38;0.38;;;;;;;;;;10315106;28;20224;-78
